sensor_id;sensor_type;location;lat;lon;timestamp;pressure;altitude;pressure_sealevel;temperature;humidity
26112;BME280;13829;48.990;8.346;2023-05-02T00:01:21;100603.75;;;11.35;100.00
26112;BME280;13829;48.990;8.346;2023-05-02T00:03:48;100612.53;;;11.34;100.00
26112;BME280;13829;48.990;8.346;2023-05-02T00:06:15;100616.00;;;11.26;100.00
26112;BME280;13829;48.990;8.346;2023-05-02T00:08:42;100609.88;;;11.28;100.00
26112;BME280;13829;48.990;8.346;2023-05-02T00:11:09;100611.59;;;11.24;100.00
26112;BME280;13829;48.990;8.346;2023-05-02T00:13:37;100610.69;;;11.23;100.00
26112;BME280;13829;48.990;8.346;2023-05-02T00:16:05;100607.16;;;11.18;100.00
26112;BME280;13829;48.990;8.346;2023-05-02T00:18:32;100605.41;;;11.13;100.00
26112;BME280;13829;48.990;8.346;2023-05-02T00:20:59;100600.09;;;11.05;100.00
26112;BME280;13829;48.990;8.346;2023-05-02T00:23:26;100607.97;;;11.06;100.00
26112;BME280;13829;48.990;8.346;2023-05-02T00:25:52;100600.91;;;10.99;100.00
26112;BME280;13829;48.990;8.346;2023-05-02T00:28:19;100605.28;;;10.96;100.00
26112;BME280;13829;48.990;8.346;2023-05-02T00:30:48;100603.50;;;10.91;100.00
26112;BME280;13829;48.990;8.346;2023-05-02T00:33:14;100609.56;;;10.84;100.00
26112;BME280;13829;48.990;8.346;2023-05-02T00:35:41;100605.16;;;10.80;100.00
26112;BME280;13829;48.990;8.346;2023-05-02T00:38:08;100606.88;;;10.75;100.00
26112;BME280;13829;48.990;8.346;2023-05-02T00:40:42;100606.88;;;10.73;100.00
26112;BME280;13829;48.990;8.346;2023-05-02T00:43:10;100612.97;;;10.68;100.00
26112;BME280;13829;48.990;8.346;2023-05-02T00:45:38;100613.81;;;10.64;100.00
26112;BME280;13829;48.990;8.346;2023-05-02T00:48:08;100608.50;;;10.56;100.00
26112;BME280;13829;48.990;8.346;2023-05-02T00:50:37;100612.03;;;10.56;100.00
26112;BME280;13829;48.990;8.346;2023-05-02T00:53:05;100608.41;;;10.45;100.00
26112;BME280;13829;48.990;8.346;2023-05-02T00:55:33;100615.34;;;10.40;100.00
26112;BME280;13829;48.990;8.346;2023-05-02T00:58:04;100618.88;;;10.39;100.00
26112;BME280;13829;48.990;8.346;2023-05-02T01:00:49;100629.41;;;10.39;100.00
26112;BME280;13829;48.990;8.346;2023-05-02T01:03:37;100620.56;;;10.34;100.00
26112;BME280;13829;48.990;8.346;2023-05-02T01:06:23;100624.91;;;10.32;100.00
26112;BME280;13829;48.990;8.346;2023-05-02T01:09:01;100618.94;;;10.45;100.00
26112;BME280;13829;48.990;8.346;2023-05-02T01:11:43;100622.19;;;10.22;100.00
26112;BME280;13829;48.990;8.346;2023-05-02T01:14:14;100619.50;;;10.18;100.00
26112;BME280;13829;48.990;8.346;2023-05-02T01:16:44;100623.84;;;10.14;100.00
26112;BME280;13829;48.990;8.346;2023-05-02T01:19:24;100626.47;;;10.11;100.00
26112;BME280;13829;48.990;8.346;2023-05-02T01:21:57;100626.47;;;10.14;100.00
26112;BME280;13829;48.990;8.346;2023-05-02T01:24:31;100626.41;;;10.09;100.00
26112;BME280;13829;48.990;8.346;2023-05-02T01:27:17;100630.75;;;10.03;100.00
26112;BME280;13829;48.990;8.346;2023-05-02T01:29:51;100622.00;;;10.07;100.00
26112;BME280;13829;48.990;8.346;2023-05-02T01:32:22;100630.03;;;10.19;100.00
26112;BME280;13829;48.990;8.346;2023-05-02T01:34:52;100629.88;;;10.04;100.00
26112;BME280;13829;48.990;8.346;2023-05-02T01:37:23;100638.59;;;10.00;100.00
26112;BME280;13829;48.990;8.346;2023-05-02T01:39:54;100636.84;;;9.99;100.00
26112;BME280;13829;48.990;8.346;2023-05-02T01:42:24;100633.28;;;9.96;100.00
26112;BME280;13829;48.990;8.346;2023-05-02T01:44:54;100636.78;;;9.95;100.00
26112;BME280;13829;48.990;8.346;2023-05-02T01:47:22;100649.91;;;9.95;100.00
26112;BME280;13829;48.990;8.346;2023-05-02T01:49:50;100645.56;;;9.98;100.00
26112;BME280;13829;48.990;8.346;2023-05-02T01:52:20;100656.91;;;9.93;100.00
26112;BME280;13829;48.990;8.346;2023-05-02T01:54:50;100653.44;;;9.94;100.00
26112;BME280;13829;48.990;8.346;2023-05-02T01:57:19;100659.53;;;9.92;100.00
26112;BME280;13829;48.990;8.346;2023-05-02T01:59:48;100661.25;;;9.90;100.00
26112;BME280;13829;48.990;8.346;2023-05-02T02:02:18;100658.63;;;9.91;100.00
26112;BME280;13829;48.990;8.346;2023-05-02T02:04:48;100671.78;;;9.93;100.00
26112;BME280;13829;48.990;8.346;2023-05-02T02:07:16;100678.81;;;9.95;100.00
26112;BME280;13829;48.990;8.346;2023-05-02T02:09:43;100686.69;;;9.95;100.00
26112;BME280;13829;48.990;8.346;2023-05-02T02:12:16;100682.28;;;9.93;100.00
26112;BME280;13829;48.990;8.346;2023-05-02T02:14:55;100688.38;;;9.87;100.00
26112;BME280;13829;48.990;8.346;2023-05-02T02:17:29;100694.50;;;9.88;100.00
26112;BME280;13829;48.990;8.346;2023-05-02T02:20:02;100693.69;;;9.93;100.00
26112;BME280;13829;48.990;8.346;2023-05-02T02:22:36;100692.03;;;10.00;100.00
26112;BME280;13829;48.990;8.346;2023-05-02T02:25:09;100697.50;;;10.17;100.00
26112;BME280;13829;48.990;8.346;2023-05-02T02:27:37;100701.06;;;10.25;100.00
26112;BME280;13829;48.990;8.346;2023-05-02T02:30:07;100697.72;;;10.36;100.00
26112;BME280;13829;48.990;8.346;2023-05-02T02:32:35;100702.22;;;10.48;100.00
26112;BME280;13829;48.990;8.346;2023-05-02T02:35:04;100703.88;;;10.41;100.00
26112;BME280;13829;48.990;8.346;2023-05-02T02:37:34;100708.38;;;10.50;100.00
26112;BME280;13829;48.990;8.346;2023-05-02T02:40:11;100703.09;;;10.48;100.00
26112;BME280;13829;48.990;8.346;2023-05-02T02:42:49;100704.03;;;10.53;100.00
26112;BME280;13829;48.990;8.346;2023-05-02T02:45:32;100711.91;;;10.50;100.00
26112;BME280;13829;48.990;8.346;2023-05-02T02:48:18;100711.00;;;10.50;100.00
26112;BME280;13829;48.990;8.346;2023-05-02T02:51:06;100709.22;;;10.47;100.00
26112;BME280;13829;48.990;8.346;2023-05-02T02:53:51;100715.28;;;10.40;100.00
26112;BME280;13829;48.990;8.346;2023-05-02T02:56:28;100716.16;;;10.39;100.00
26112;BME280;13829;48.990;8.346;2023-05-02T02:59:03;100721.31;;;10.33;100.00
26112;BME280;13829;48.990;8.346;2023-05-02T03:01:33;100716.84;;;10.25;100.00
26112;BME280;13829;48.990;8.346;2023-05-02T03:04:07;100731.69;;;10.23;100.00
26112;BME280;13829;48.990;8.346;2023-05-02T03:06:37;100730.84;;;10.24;100.00
26112;BME280;13829;48.990;8.346;2023-05-02T03:09:05;100736.16;;;10.27;100.00
26112;BME280;13829;48.990;8.346;2023-05-02T03:11:31;100735.31;;;10.32;100.00
26112;BME280;13829;48.990;8.346;2023-05-02T03:13:58;100737.09;;;10.34;100.00
26112;BME280;13829;48.990;8.346;2023-05-02T03:16:35;100739.78;;;10.36;100.00
26112;BME280;13829;48.990;8.346;2023-05-02T03:19:05;100742.53;;;10.45;100.00
26112;BME280;13829;48.990;8.346;2023-05-02T03:21:33;100743.41;;;10.47;100.00
26112;BME280;13829;48.990;8.346;2023-05-02T03:24:02;100748.72;;;10.50;100.00
26112;BME280;13829;48.990;8.346;2023-05-02T03:26:29;100744.41;;;10.58;100.00
26112;BME280;13829;48.990;8.346;2023-05-02T03:28:56;100750.50;;;10.54;100.00
26112;BME280;13829;48.990;8.346;2023-05-02T03:31:23;100746.09;;;10.53;100.00
26112;BME280;13829;48.990;8.346;2023-05-02T03:33:50;100748.72;;;10.50;100.00
26112;BME280;13829;48.990;8.346;2023-05-02T03:36:19;100750.44;;;10.51;100.00
26112;BME280;13829;48.990;8.346;2023-05-02T03:38:45;100759.31;;;10.56;100.00
26112;BME280;13829;48.990;8.346;2023-05-02T03:41:12;100755.84;;;10.62;100.00
26112;BME280;13829;48.990;8.346;2023-05-02T03:43:39;100749.72;;;10.62;100.00
26112;BME280;13829;48.990;8.346;2023-05-02T03:46:08;100749.66;;;10.60;100.00
26112;BME280;13829;48.990;8.346;2023-05-02T03:48:36;100753.13;;;10.54;100.00
26112;BME280;13829;48.990;8.346;2023-05-02T03:51:05;100752.97;;;10.40;100.00
26112;BME280;13829;48.990;8.346;2023-05-02T03:53:35;100756.34;;;10.32;100.00
26112;BME280;13829;48.990;8.346;2023-05-02T03:56:03;100749.25;;;10.24;100.00
26112;BME280;13829;48.990;8.346;2023-05-02T03:58:30;100756.19;;;10.18;100.00
26112;BME280;13829;48.990;8.346;2023-05-02T04:00:57;100760.50;;;10.14;100.00
26112;BME280;13829;48.990;8.346;2023-05-02T04:03:24;100771.03;;;10.14;100.00
26112;BME280;13829;48.990;8.346;2023-05-02T04:05:51;100764.97;;;10.20;100.00
26112;BME280;13829;48.990;8.346;2023-05-02T04:08:18;100781.50;;;10.11;100.00
26112;BME280;13829;48.990;8.346;2023-05-02T04:10:46;100781.50;;;10.11;100.00
26112;BME280;13829;48.990;8.346;2023-05-02T04:13:13;100788.38;;;10.01;100.00
26112;BME280;13829;48.990;8.346;2023-05-02T04:15:40;100786.59;;;9.99;100.00
26112;BME280;13829;48.990;8.346;2023-05-02T04:18:07;100803.13;;;9.90;100.00
26112;BME280;13829;48.990;8.346;2023-05-02T04:20:34;100809.97;;;9.80;100.00
26112;BME280;13829;48.990;8.346;2023-05-02T04:23:01;100809.09;;;9.79;100.00
26112;BME280;13829;48.990;8.346;2023-05-02T04:25:28;100810.06;;;9.85;100.00
26112;BME280;13829;48.990;8.346;2023-05-02T04:27:56;100817.00;;;9.79;100.00
26112;BME280;13829;48.990;8.346;2023-05-02T04:30:23;100811.75;;;9.81;100.00
26112;BME280;13829;48.990;8.346;2023-05-02T04:32:50;100811.00;;;9.88;100.00
26112;BME280;13829;48.990;8.346;2023-05-02T04:35:17;100805.72;;;9.88;100.00
26112;BME280;13829;48.990;8.346;2023-05-02T04:37:44;100814.56;;;9.92;100.00
26112;BME280;13829;48.990;8.346;2023-05-02T04:40:12;100821.53;;;9.91;100.00
26112;BME280;13829;48.990;8.346;2023-05-02T04:42:39;100822.47;;;9.96;100.00
26112;BME280;13829;48.990;8.346;2023-05-02T04:45:08;100822.56;;;10.04;100.00
26112;BME280;13829;48.990;8.346;2023-05-02T04:47:35;100830.56;;;10.12;100.00
26112;BME280;13829;48.990;8.346;2023-05-02T04:50:03;100829.81;;;10.21;100.00
26112;BME280;13829;48.990;8.346;2023-05-02T04:52:30;100833.44;;;10.27;100.00
26112;BME280;13829;48.990;8.346;2023-05-02T04:54:57;100832.78;;;10.42;100.00
26112;BME280;13829;48.990;8.346;2023-05-02T04:57:23;100832.88;;;10.50;100.00
26112;BME280;13829;48.990;8.346;2023-05-02T04:59:50;100841.78;;;10.65;100.00
26112;BME280;13829;48.990;8.346;2023-05-02T05:02:19;100852.47;;;10.77;100.00
26112;BME280;13829;48.990;8.346;2023-05-02T05:04:46;100853.47;;;10.87;100.00
26112;BME280;13829;48.990;8.346;2023-05-02T05:07:12;100858.81;;;10.98;100.00
26112;BME280;13829;48.990;8.346;2023-05-02T05:09:39;100865.22;;;11.24;100.00
26112;BME280;13829;48.990;8.346;2023-05-02T05:12:06;100868.84;;;11.37;100.00
26112;BME280;13829;48.990;8.346;2023-05-02T05:14:33;100867.19;;;11.44;100.00
26112;BME280;13829;48.990;8.346;2023-05-02T05:17:00;100878.75;;;11.66;100.00
26112;BME280;13829;48.990;8.346;2023-05-02T05:19:29;100872.59;;;11.63;100.00
26112;BME280;13829;48.990;8.346;2023-05-02T05:21:56;100878.63;;;11.49;100.00
26112;BME280;13829;48.990;8.346;2023-05-02T05:24:23;100881.38;;;11.65;100.00
26112;BME280;13829;48.990;8.346;2023-05-02T05:26:49;100890.25;;;11.73;100.00
26112;BME280;13829;48.990;8.346;2023-05-02T05:29:17;100898.84;;;11.53;100.00
26112;BME280;13829;48.990;8.346;2023-05-02T05:31:44;100901.56;;;11.63;100.00
26112;BME280;13829;48.990;8.346;2023-05-02T05:34:12;100896.41;;;11.73;100.00
26112;BME280;13829;48.990;8.346;2023-05-02T05:36:41;100907.03;;;11.87;100.00
26112;BME280;13829;48.990;8.346;2023-05-02T05:39:08;100915.03;;;11.97;100.00
26112;BME280;13829;48.990;8.346;2023-05-02T05:41:35;100909.06;;;12.18;100.00
26112;BME280;13829;48.990;8.346;2023-05-02T05:44:03;100904.72;;;12.28;100.00
26112;BME280;13829;48.990;8.346;2023-05-02T05:46:30;100910.00;;;12.28;100.00
26112;BME280;13829;48.990;8.346;2023-05-02T05:48:57;100911.78;;;12.30;100.00
26112;BME280;13829;48.990;8.346;2023-05-02T05:51:24;100915.41;;;12.49;100.00
26112;BME280;13829;48.990;8.346;2023-05-02T05:53:54;100910.13;;;12.49;100.00
26112;BME280;13829;48.990;8.346;2023-05-02T05:56:21;100914.69;;;12.91;100.00
26112;BME280;13829;48.990;8.346;2023-05-02T05:58:48;100912.06;;;12.97;100.00
26112;BME280;13829;48.990;8.346;2023-05-02T06:01:15;100915.69;;;13.36;100.00
26112;BME280;13829;48.990;8.346;2023-05-02T06:03:42;100925.44;;;13.57;100.00
26112;BME280;13829;48.990;8.346;2023-05-02T06:06:09;100915.75;;;13.79;100.00
26112;BME280;13829;48.990;8.346;2023-05-02T06:08:36;100928.09;;;13.97;100.00
26112;BME280;13829;48.990;8.346;2023-05-02T06:11:08;100926.31;;;13.98;100.00
26112;BME280;13829;48.990;8.346;2023-05-02T06:13:35;100929.81;;;14.12;100.00
26112;BME280;13829;48.990;8.346;2023-05-02T06:16:03;100926.28;;;14.32;100.00
26112;BME280;13829;48.990;8.346;2023-05-02T06:18:30;100929.72;;;14.59;100.00
26112;BME280;13829;48.990;8.346;2023-05-02T06:20:57;100935.91;;;14.70;100.00
26112;BME280;13829;48.990;8.346;2023-05-02T06:23:28;100934.03;;;14.97;100.00
26112;BME280;13829;48.990;8.346;2023-05-02T06:25:58;100940.19;;;15.02;98.81
26112;BME280;13829;48.990;8.346;2023-05-02T06:28:27;100952.53;;;15.06;98.83
26112;BME280;13829;48.990;8.346;2023-05-02T06:30:58;100963.16;;;14.97;98.87
26112;BME280;13829;48.990;8.346;2023-05-02T06:33:26;100968.50;;;14.84;100.00
26112;BME280;13829;48.990;8.346;2023-05-02T06:35:53;100961.50;;;14.68;100.00
26112;BME280;13829;48.990;8.346;2023-05-02T06:38:20;100962.34;;;14.82;100.00
26112;BME280;13829;48.990;8.346;2023-05-02T06:40:48;100976.53;;;14.71;100.00
26112;BME280;13829;48.990;8.346;2023-05-02T06:45:51;100985.28;;;14.91;100.00
26112;BME280;13829;48.990;8.346;2023-05-02T06:48:18;100981.78;;;14.74;100.00
26112;BME280;13829;48.990;8.346;2023-05-02T06:50:46;101000.34;;;14.58;100.00
26112;BME280;13829;48.990;8.346;2023-05-02T06:53:13;101006.50;;;14.59;100.00
26112;BME280;13829;48.990;8.346;2023-05-02T06:55:40;100997.72;;;14.40;100.00
26112;BME280;13829;48.990;8.346;2023-05-02T06:58:07;101005.63;;;14.54;100.00
26112;BME280;13829;48.990;8.346;2023-05-02T07:00:34;101009.19;;;14.42;99.27
26112;BME280;13829;48.990;8.346;2023-05-02T07:03:03;101009.19;;;14.35;99.52
26112;BME280;13829;48.990;8.346;2023-05-02T07:05:30;101002.09;;;14.61;100.00
26112;BME280;13829;48.990;8.346;2023-05-02T07:07:57;101002.06;;;14.84;100.00
26112;BME280;13829;48.990;8.346;2023-05-02T07:10:24;101005.47;;;15.15;100.00
26112;BME280;13829;48.990;8.346;2023-05-02T07:12:51;101005.13;;;15.79;99.00
26112;BME280;13829;48.990;8.346;2023-05-02T07:15:18;100998.03;;;16.80;92.88
26112;BME280;13829;48.990;8.346;2023-05-02T07:17:45;101012.44;;;18.00;82.63
26112;BME280;13829;48.990;8.346;2023-05-02T07:20:15;100999.31;;;18.89;74.33
26112;BME280;13829;48.990;8.346;2023-05-02T07:22:42;101000.41;;;19.63;68.80
26112;BME280;13829;48.990;8.346;2023-05-02T07:25:09;100994.34;;;20.32;61.94
26112;BME280;13829;48.990;8.346;2023-05-02T07:27:36;100989.44;;;20.81;60.23
26112;BME280;13829;48.990;8.346;2023-05-02T07:30:04;100986.72;;;21.44;56.64
26112;BME280;13829;48.990;8.346;2023-05-02T07:32:32;100992.16;;;21.71;56.56
26112;BME280;13829;48.990;8.346;2023-05-02T07:34:59;100998.88;;;21.84;54.69
26112;BME280;13829;48.990;8.346;2023-05-02T07:37:32;100994.63;;;21.48;52.97
26112;BME280;13829;48.990;8.346;2023-05-02T07:40:00;100999.50;;;21.64;54.19
26112;BME280;13829;48.990;8.346;2023-05-02T07:42:28;100997.03;;;21.58;54.81
26112;BME280;13829;48.990;8.346;2023-05-02T07:44:55;100996.59;;;20.80;59.83
26112;BME280;13829;48.990;8.346;2023-05-02T07:47:22;101011.41;;;19.90;62.38
26112;BME280;13829;48.990;8.346;2023-05-02T07:49:50;101015.09;;;18.53;64.53
26112;BME280;13829;48.990;8.346;2023-05-02T07:52:18;101019.28;;;17.57;69.53
26112;BME280;13829;48.990;8.346;2023-05-02T07:54:48;101015.75;;;16.82;74.71
26112;BME280;13829;48.990;8.346;2023-05-02T07:57:16;101017.81;;;16.50;78.98
26112;BME280;13829;48.990;8.346;2023-05-02T07:59:43;101019.56;;;16.54;78.93
26112;BME280;13829;48.990;8.346;2023-05-02T08:02:10;101016.03;;;16.54;79.17
26112;BME280;13829;48.990;8.346;2023-05-02T08:04:38;101011.66;;;16.50;79.03
26112;BME280;13829;48.990;8.346;2023-05-02T08:07:05;101019.47;;;16.63;80.42
26112;BME280;13829;48.990;8.346;2023-05-02T08:09:32;101026.56;;;16.61;72.43
26112;BME280;13829;48.990;8.346;2023-05-02T08:12:00;101019.53;;;16.57;71.97
26112;BME280;13829;48.990;8.346;2023-05-02T08:14:28;101032.00;;;16.51;69.86
26112;BME280;13829;48.990;8.346;2023-05-02T08:16:57;101021.50;;;16.37;70.67
26112;BME280;13829;48.990;8.346;2023-05-02T08:19:25;101025.59;;;16.73;77.23
26112;BME280;13829;48.990;8.346;2023-05-02T08:21:53;101024.41;;;17.01;70.23
26112;BME280;13829;48.990;8.346;2023-05-02T08:24:20;101028.81;;;17.70;71.73
26112;BME280;13829;48.990;8.346;2023-05-02T08:26:47;101034.25;;;18.73;71.11
26112;BME280;13829;48.990;8.346;2023-05-02T08:29:15;101030.44;;;19.32;63.46
26112;BME280;13829;48.990;8.346;2023-05-02T08:31:42;101035.59;;;19.40;56.71
26112;BME280;13829;48.990;8.346;2023-05-02T08:34:09;101034.44;;;19.52;57.73
26112;BME280;13829;48.990;8.346;2023-05-02T08:36:36;101036.47;;;19.40;56.00
26112;BME280;13829;48.990;8.346;2023-05-02T08:39:03;101031.75;;;19.11;55.98
26112;BME280;13829;48.990;8.346;2023-05-02T08:41:32;101044.91;;;18.72;59.22
26112;BME280;13829;48.990;8.346;2023-05-02T08:44:01;101041.78;;;18.50;59.21
26112;BME280;13829;48.990;8.346;2023-05-02T08:46:31;101043.22;;;18.18;60.94
26112;BME280;13829;48.990;8.346;2023-05-02T08:49:02;101051.06;;;17.66;61.71
26112;BME280;13829;48.990;8.346;2023-05-02T08:51:29;101051.34;;;17.44;64.53
26112;BME280;13829;48.990;8.346;2023-05-02T08:54:01;101048.16;;;17.18;64.58
26112;BME280;13829;48.990;8.346;2023-05-02T08:56:28;101049.59;;;17.43;65.89
26112;BME280;13829;48.990;8.346;2023-05-02T08:58:55;101051.53;;;17.93;66.46
26112;BME280;13829;48.990;8.346;2023-05-02T09:01:27;101047.00;;;18.54;63.45
26112;BME280;13829;48.990;8.346;2023-05-02T09:03:57;101051.63;;;18.95;62.75
26112;BME280;13829;48.990;8.346;2023-05-02T09:06:25;101059.47;;;19.02;60.45
26112;BME280;13829;48.990;8.346;2023-05-02T09:08:52;101053.59;;;19.30;57.36
26112;BME280;13829;48.990;8.346;2023-05-02T09:11:20;101055.09;;;19.44;55.09
26112;BME280;13829;48.990;8.346;2023-05-02T09:13:49;101061.97;;;19.54;56.49
26112;BME280;13829;48.990;8.346;2023-05-02T09:16:19;101057.63;;;19.50;55.40
26112;BME280;13829;48.990;8.346;2023-05-02T09:18:49;101051.41;;;19.51;60.28
26112;BME280;13829;48.990;8.346;2023-05-02T09:21:20;101055.31;;;19.34;60.29
26112;BME280;13829;48.990;8.346;2023-05-02T09:23:48;101051.28;;;19.13;60.11
26112;BME280;13829;48.990;8.346;2023-05-02T09:26:18;101058.91;;;18.85;62.11
26112;BME280;13829;48.990;8.346;2023-05-02T09:28:47;101060.03;;;18.71;61.06
26112;BME280;13829;48.990;8.346;2023-05-02T09:31:16;101068.66;;;18.86;58.91
26112;BME280;13829;48.990;8.346;2023-05-02T09:33:44;101072.50;;;18.69;67.44
26112;BME280;13829;48.990;8.346;2023-05-02T09:36:13;101054.72;;;18.71;65.49
26112;BME280;13829;48.990;8.346;2023-05-02T09:38:44;101063.59;;;18.70;65.13
26112;BME280;13829;48.990;8.346;2023-05-02T09:41:12;101060.44;;;18.50;63.15
26112;BME280;13829;48.990;8.346;2023-05-02T09:43:40;101061.16;;;18.58;61.56
26112;BME280;13829;48.990;8.346;2023-05-02T09:46:09;101056.63;;;18.63;64.51
26112;BME280;13829;48.990;8.346;2023-05-02T09:48:52;101053.88;;;18.68;64.15
26112;BME280;13829;48.990;8.346;2023-05-02T09:51:22;101063.00;;;18.56;63.49
26112;BME280;13829;48.990;8.346;2023-05-02T09:53:51;101059.47;;;19.02;63.51
26112;BME280;13829;48.990;8.346;2023-05-02T09:56:18;101054.72;;;19.18;60.14
26112;BME280;13829;48.990;8.346;2023-05-02T09:58:45;101057.75;;;19.44;60.07
26112;BME280;13829;48.990;8.346;2023-05-02T10:01:17;101067.50;;;19.87;56.02
26112;BME280;13829;48.990;8.346;2023-05-02T10:03:47;101062.22;;;19.85;57.96
26112;BME280;13829;48.990;8.346;2023-05-02T10:06:15;101064.56;;;19.99;58.09
26112;BME280;13829;48.990;8.346;2023-05-02T10:08:42;101062.25;;;19.42;58.80
26112;BME280;13829;48.990;8.346;2023-05-02T10:11:12;101063.22;;;19.37;57.10
26112;BME280;13829;48.990;8.346;2023-05-02T10:13:42;101069.72;;;19.24;60.38
26112;BME280;13829;48.990;8.346;2023-05-02T10:16:11;101072.28;;;19.29;56.24
26112;BME280;13829;48.990;8.346;2023-05-02T10:18:43;101077.47;;;18.93;58.56
26112;BME280;13829;48.990;8.346;2023-05-02T10:21:16;101072.16;;;18.88;58.21
26112;BME280;13829;48.990;8.346;2023-05-02T10:23:45;101080.75;;;18.55;62.92
26112;BME280;13829;48.990;8.346;2023-05-02T10:26:15;101071.22;;;18.40;62.60
26112;BME280;13829;48.990;8.346;2023-05-02T10:28:43;101078.63;;;18.23;60.03
26112;BME280;13829;48.990;8.346;2023-05-02T10:31:13;101071.63;;;18.16;60.59
26112;BME280;13829;48.990;8.346;2023-05-02T10:33:41;101073.78;;;18.48;62.64
26112;BME280;13829;48.990;8.346;2023-05-02T10:36:11;101079.38;;;18.31;58.05
26112;BME280;13829;48.990;8.346;2023-05-02T10:38:39;101072.28;;;18.32;59.04
26112;BME280;13829;48.990;8.346;2023-05-02T10:41:23;101067.91;;;18.26;61.52
26112;BME280;13829;48.990;8.346;2023-05-02T10:43:52;101069.72;;;18.25;62.07
26112;BME280;13829;48.990;8.346;2023-05-02T10:46:30;101064.63;;;18.10;60.90
26112;BME280;13829;48.990;8.346;2023-05-02T10:49:03;101066.41;;;18.09;61.99
26112;BME280;13829;48.990;8.346;2023-05-02T10:51:31;101059.19;;;18.18;68.58
26112;BME280;13829;48.990;8.346;2023-05-02T10:54:18;101064.28;;;18.30;62.28
26112;BME280;13829;48.990;8.346;2023-05-02T10:57:06;101064.66;;;18.08;58.96
26112;BME280;13829;48.990;8.346;2023-05-02T10:59:35;101067.97;;;18.23;56.32
26112;BME280;13829;48.990;8.346;2023-05-02T11:02:03;101061.00;;;18.67;57.78
26112;BME280;13829;48.990;8.346;2023-05-02T11:05:00;101061.25;;;19.03;58.91
26112;BME280;13829;48.990;8.346;2023-05-02T11:07:28;101063.28;;;18.90;55.22
26112;BME280;13829;48.990;8.346;2023-05-02T11:10:26;101059.66;;;18.93;54.23
26112;BME280;13829;48.990;8.346;2023-05-02T11:12:56;101061.47;;;18.91;59.88
26112;BME280;13829;48.990;8.346;2023-05-02T11:15:54;101076.25;;;18.59;56.58
26112;BME280;13829;48.990;8.346;2023-05-02T11:18:24;101075.28;;;18.08;54.40
26112;BME280;13829;48.990;8.346;2023-05-02T11:20:51;101072.84;;;17.95;56.11
26112;BME280;13829;48.990;8.346;2023-05-02T11:23:39;101068.25;;;18.04;55.91
26112;BME280;13829;48.990;8.346;2023-05-02T11:26:20;101072.56;;;18.13;58.30
26112;BME280;13829;48.990;8.346;2023-05-02T11:28:49;101066.34;;;18.13;58.56
26112;BME280;13829;48.990;8.346;2023-05-02T11:32:01;101072.03;;;17.88;57.92
26112;BME280;13829;48.990;8.346;2023-05-02T11:34:41;101076.41;;;17.92;56.99
26112;BME280;13829;48.990;8.346;2023-05-02T11:37:13;101079.13;;;17.86;57.05
26112;BME280;13829;48.990;8.346;2023-05-02T11:39:41;101073.75;;;17.95;56.20
26112;BME280;13829;48.990;8.346;2023-05-02T11:42:08;101080.13;;;17.80;54.75
26112;BME280;13829;48.990;8.346;2023-05-02T11:44:58;101066.75;;;17.83;55.78
26112;BME280;13829;48.990;8.346;2023-05-02T11:47:26;101068.63;;;17.76;54.56
26112;BME280;13829;48.990;8.346;2023-05-02T11:49:54;101070.34;;;17.81;55.73
26112;BME280;13829;48.990;8.346;2023-05-02T11:52:22;101068.41;;;17.92;60.61
26112;BME280;13829;48.990;8.346;2023-05-02T11:54:53;101062.19;;;17.93;58.59
26112;BME280;13829;48.990;8.346;2023-05-02T11:57:20;101060.06;;;18.18;54.59
26112;BME280;13829;48.990;8.346;2023-05-02T11:59:51;101057.00;;;18.41;57.21
26112;BME280;13829;48.990;8.346;2023-05-02T12:02:34;101065.25;;;18.78;55.73
26112;BME280;13829;48.990;8.346;2023-05-02T12:05:02;101074.22;;;18.73;51.28
26112;BME280;13829;48.990;8.346;2023-05-02T12:07:35;101068.91;;;18.73;53.13
26112;BME280;13829;48.990;8.346;2023-05-02T12:10:04;101059.81;;;18.84;59.87
26112;BME280;13829;48.990;8.346;2023-05-02T12:12:31;101066.91;;;18.83;57.02
26112;BME280;13829;48.990;8.346;2023-05-02T12:15:03;101073.84;;;18.95;55.21
26112;BME280;13829;48.990;8.346;2023-05-02T12:17:33;101074.66;;;19.00;56.84
26112;BME280;13829;48.990;8.346;2023-05-02T12:20:03;101079.13;;;18.98;56.00
26112;BME280;13829;48.990;8.346;2023-05-02T12:22:30;101072.13;;;18.91;50.54
26112;BME280;13829;48.990;8.346;2023-05-02T12:24:58;101083.69;;;18.92;52.73
26112;BME280;13829;48.990;8.346;2023-05-02T12:27:25;101079.13;;;18.98;52.97
26112;BME280;13829;48.990;8.346;2023-05-02T12:29:52;101083.47;;;19.04;51.34
26112;BME280;13829;48.990;8.346;2023-05-02T12:32:27;101080.75;;;19.05;52.83
26112;BME280;13829;48.990;8.346;2023-05-02T12:34:57;101087.13;;;18.98;56.06
26112;BME280;13829;48.990;8.346;2023-05-02T12:37:25;101086.09;;;19.05;55.85
26112;BME280;13829;48.990;8.346;2023-05-02T12:39:53;101082.69;;;18.97;50.50
26112;BME280;13829;48.990;8.346;2023-05-02T12:42:24;101075.34;;;19.09;54.58
26112;BME280;13829;48.990;8.346;2023-05-02T12:44:52;101070.09;;;19.05;53.08
26112;BME280;13829;48.990;8.346;2023-05-02T12:47:20;101080.88;;;18.99;53.22
26112;BME280;13829;48.990;8.346;2023-05-02T12:49:48;101070.88;;;19.11;51.75
26112;BME280;13829;48.990;8.346;2023-05-02T12:52:17;101065.50;;;19.12;52.34
26112;BME280;13829;48.990;8.346;2023-05-02T12:54:44;101070.03;;;19.09;53.51
26112;BME280;13829;48.990;8.346;2023-05-02T12:57:22;101082.75;;;18.94;49.26
26112;BME280;13829;48.990;8.346;2023-05-02T12:59:51;101071.72;;;19.13;54.29
26112;BME280;13829;48.990;8.346;2023-05-02T13:02:19;101077.44;;;18.94;52.95